UUOB 150300Z 27005MPS CAVOK 11/10 Q1006 R29/010070 NOSIG
QNH:(hPa/inHg/mmHg)1006 / 29.71 / 755
QFE:(hPa/inHg/mmHg)979 / 28.90 / 734
Temperature11
Dew Point10
Visibility> 10000
WeatherCAVOK
Cloud Cover
Transition Height500 m./2400 ft.
Transition LevelFL40
SQUAWK